createdAt,value
2022-12-02T00:09:25.969Z,19.10
2022-12-02T00:19:27.371Z,19.10
2022-12-02T00:29:28.759Z,19.00
2022-12-02T00:39:30.131Z,18.90
2022-12-02T00:49:31.545Z,18.90
2022-12-02T00:59:32.936Z,18.80
2022-12-02T01:09:34.315Z,18.80
2022-12-02T01:19:35.709Z,18.70
2022-12-02T01:29:37.100Z,18.70
2022-12-02T01:39:38.483Z,18.70
2022-12-02T01:49:39.877Z,18.60
2022-12-02T01:59:41.276Z,18.50
2022-12-02T02:09:42.662Z,18.50
2022-12-02T02:19:44.048Z,18.50
2022-12-02T02:29:45.436Z,18.40
2022-12-02T02:39:46.825Z,18.30
2022-12-02T02:49:48.221Z,18.30
2022-12-02T02:59:49.605Z,18.30
2022-12-02T03:09:50.996Z,18.20
2022-12-02T03:19:52.381Z,18.20
2022-12-02T03:29:53.772Z,18.10
2022-12-02T03:39:55.153Z,18.10
2022-12-02T03:49:56.531Z,18.00
2022-12-02T03:59:57.918Z,18.00
2022-12-02T04:09:59.301Z,18.00
2022-12-02T04:20:00.678Z,17.90
2022-12-02T04:30:02.042Z,17.80
2022-12-02T04:40:03.460Z,17.80
2022-12-02T04:50:04.869Z,17.80
2022-12-02T05:00:06.247Z,17.80
2022-12-02T05:10:07.635Z,17.70
2022-12-02T05:20:09.019Z,17.60
2022-12-02T05:30:10.402Z,17.60
2022-12-02T05:40:11.785Z,17.60
2022-12-02T05:50:13.164Z,17.60
2022-12-02T06:00:14.546Z,17.60
2022-12-02T06:10:15.946Z,17.50
2022-12-02T06:20:17.336Z,17.50
2022-12-02T06:30:18.736Z,18.00
2022-12-02T06:40:28.106Z,18.50
2022-12-02T06:50:30.426Z,18.80
2022-12-02T07:00:31.818Z,19.10
2022-12-02T07:10:33.918Z,19.30
2022-12-02T07:20:35.307Z,19.50
2022-12-02T07:30:36.726Z,19.50
2022-12-02T07:40:38.150Z,19.60
2022-12-02T07:50:39.530Z,19.80
2022-12-02T08:00:40.908Z,20.50
2022-12-02T08:10:42.317Z,20.80
2022-12-02T08:20:43.711Z,20.70
2022-12-02T08:30:45.136Z,20.90
2022-12-02T08:40:46.558Z,21.00
2022-12-02T08:50:47.943Z,21.10
2022-12-02T09:00:49.304Z,21.10
2022-12-02T09:10:50.837Z,21.00
2022-12-02T09:20:52.228Z,21.00
2022-12-02T09:30:53.719Z,21.20
2022-12-02T09:40:55.142Z,21.50
2022-12-02T09:50:56.515Z,21.40
2022-12-02T10:00:57.904Z,21.00
2022-12-02T10:10:59.280Z,20.90
2022-12-02T10:21:00.675Z,20.80
2022-12-02T10:31:02.070Z,20.80
2022-12-02T10:41:04.040Z,20.90
2022-12-02T10:51:05.573Z,20.70
2022-12-02T11:01:06.999Z,20.80
2022-12-02T11:11:08.416Z,20.90
2022-12-02T11:21:09.813Z,21.00
2022-12-02T11:31:11.277Z,21.00
2022-12-02T11:41:12.703Z,20.90
2022-12-02T11:51:14.093Z,20.90
2022-12-02T12:01:15.505Z,20.90
2022-12-02T12:11:16.886Z,20.90
2022-12-02T12:21:18.271Z,20.90
2022-12-02T12:31:19.793Z,20.90
2022-12-02T12:41:51.283Z,21.00
2022-12-02T12:51:42.670Z,20.90
2022-12-02T13:01:44.106Z,20.80
2022-12-02T13:11:45.572Z,20.80
2022-12-02T13:21:46.966Z,21.20
2022-12-02T13:31:48.368Z,21.20
2022-12-02T13:41:49.747Z,21.20
2022-12-02T13:51:51.173Z,21.20
2022-12-02T14:01:52.612Z,21.20
2022-12-02T14:11:54.040Z,21.10
2022-12-02T14:21:55.430Z,21.10
2022-12-02T14:31:56.866Z,21.20
2022-12-02T14:41:58.317Z,21.20
2022-12-02T14:51:59.713Z,21.10
2022-12-02T15:02:01.205Z,21.20
2022-12-02T15:12:02.737Z,21.20
2022-12-02T15:22:04.144Z,21.10
2022-12-02T15:32:05.587Z,21.10
2022-12-02T15:42:07.325Z,21.00
2022-12-02T15:52:08.707Z,21.00
2022-12-02T16:02:10.174Z,20.90
2022-12-02T16:12:11.570Z,20.80
2022-12-02T16:22:12.964Z,20.80
2022-12-02T16:32:20.030Z,21.00
2022-12-02T16:42:22.131Z,21.10
2022-12-02T16:52:23.543Z,21.10
2022-12-02T17:02:30.408Z,21.20
2022-12-02T17:12:33.397Z,21.10
